createdAt,value
2018-07-02T00:04:40.679Z,1.93
2018-07-02T00:10:35.728Z,2.03
2018-07-02T00:16:30.671Z,2.04
2018-07-02T00:22:25.665Z,2.18
2018-07-02T00:28:20.747Z,2.08
2018-07-02T00:34:15.697Z,1.75
2018-07-02T00:40:10.707Z,2.05
2018-07-02T00:46:05.802Z,1.98
2018-07-02T00:52:00.741Z,1.97
2018-07-02T00:57:55.744Z,2.27
2018-07-02T01:03:50.712Z,2.02
2018-07-02T01:09:45.795Z,2.13
2018-07-02T01:15:40.719Z,1.94
2018-07-02T01:21:35.764Z,2.3
2018-07-02T01:27:30.744Z,2.33
2018-07-02T01:33:25.769Z,2.21
2018-07-02T01:39:20.762Z,2.46
2018-07-02T01:45:15.725Z,2.48
2018-07-02T01:51:10.759Z,2.35
2018-07-02T01:57:05.792Z,2.41
2018-07-02T02:03:00.731Z,2.29
2018-07-02T02:08:55.825Z,2.34
2018-07-02T02:14:50.791Z,2.44
2018-07-02T02:20:45.824Z,2.04
2018-07-02T02:26:40.769Z,2.1
2018-07-02T02:32:35.829Z,2
2018-07-02T02:38:30.843Z,2.4
2018-07-02T02:44:25.850Z,2.13
2018-07-02T02:50:20.815Z,2.31
2018-07-02T02:56:15.835Z,2.47
2018-07-02T03:02:11.172Z,2.28
2018-07-02T03:08:05.869Z,2.24
2018-07-02T03:14:00.799Z,2.59
2018-07-02T03:19:55.836Z,2.67
2018-07-02T03:25:50.873Z,2.58
2018-07-02T03:31:45.942Z,2.2
2018-07-02T03:37:40.816Z,2.81
2018-07-02T03:43:35.875Z,2.75
2018-07-02T03:49:30.846Z,2.48
2018-07-02T03:55:25.852Z,2.68
2018-07-02T04:01:20.945Z,2.03
2018-07-02T04:07:15.837Z,2.17
2018-07-02T04:13:10.889Z,2.25
2018-07-02T04:19:05.904Z,2.68
2018-07-02T04:25:00.919Z,2.22
2018-07-02T04:30:55.895Z,2.33
2018-07-02T04:36:50.894Z,2.86
2018-07-02T04:42:45.878Z,2.6
2018-07-02T04:48:40.881Z,2.53
2018-07-02T04:54:35.894Z,2.64
2018-07-02T05:00:30.938Z,2.74
2018-07-02T05:06:25.929Z,2.51
2018-07-02T05:12:20.912Z,2.43
2018-07-02T05:18:15.906Z,2.55
2018-07-02T05:24:10.971Z,3
2018-07-02T05:30:05.894Z,2.63
2018-07-02T05:36:00.986Z,2.98
2018-07-02T05:41:55.925Z,2.39
2018-07-02T05:47:50.935Z,2.69
2018-07-02T05:53:45.941Z,2.53
2018-07-02T05:59:40.974Z,2.64
2018-07-02T06:05:36.066Z,2.47
2018-07-02T06:11:30.966Z,2.72
2018-07-02T06:17:25.957Z,2.73
2018-07-02T06:23:20.928Z,2.71
2018-07-02T06:29:16.038Z,3.01
2018-07-02T06:35:11.015Z,3.1
2018-07-02T06:41:05.995Z,3.43
2018-07-02T06:47:00.949Z,3.37
2018-07-02T06:52:55.977Z,3.22
2018-07-02T06:58:51.042Z,4.25
2018-07-02T07:04:45.990Z,2.88
2018-07-02T07:10:41.042Z,3.14
2018-07-02T07:16:35.970Z,3.34
2018-07-02T07:22:31.027Z,3.46
2018-07-02T07:28:26.001Z,2.82
2018-07-02T07:34:20.983Z,2.81
2018-07-02T07:40:16.009Z,2.55
2018-07-02T07:46:10.983Z,2.13
2018-07-02T07:52:05.988Z,2.45
2018-07-02T07:58:01.053Z,2.47
2018-07-02T08:03:56.035Z,2.62
2018-07-02T08:09:51.013Z,3.38
2018-07-02T08:15:46.074Z,3.37
2018-07-02T08:21:41.091Z,3.23
2018-07-02T08:27:36.125Z,2.3
2018-07-02T08:33:31.062Z,2.58
2018-07-02T08:39:26.068Z,2.53
2018-07-02T08:45:21.029Z,1.87
2018-07-02T08:51:16.053Z,1.46
2018-07-02T08:57:11.087Z,1.68
2018-07-02T09:03:06.084Z,1.5
2018-07-02T09:09:01.135Z,2.06
2018-07-02T09:14:56.122Z,1.79
2018-07-02T09:20:51.082Z,2.21
2018-07-02T09:26:46.120Z,2.58
2018-07-02T09:32:41.184Z,1.75
2018-07-02T09:38:36.168Z,1.4
2018-07-02T09:44:31.089Z,1.63
2018-07-02T09:50:26.111Z,1.74
2018-07-02T09:56:21.145Z,1.3
2018-07-02T10:02:16.114Z,1.69
2018-07-02T10:08:11.204Z,1.73
2018-07-02T10:14:06.185Z,1.29
2018-07-02T10:20:01.144Z,1.63
2018-07-02T10:25:56.205Z,1.3
2018-07-02T10:31:51.147Z,1.38
2018-07-02T10:37:46.167Z,1.37
2018-07-02T10:43:41.182Z,1.17
2018-07-02T10:49:36.201Z,1.53
2018-07-02T10:55:31.166Z,1.1
2018-07-02T11:01:26.250Z,1.21
2018-07-02T11:07:21.212Z,1.19
2018-07-02T11:13:16.206Z,1.23
2018-07-02T11:19:11.280Z,1.13
2018-07-02T11:25:06.213Z,1.26
2018-07-02T11:31:01.203Z,1.19
2018-07-02T11:36:56.234Z,1.54
2018-07-02T11:42:51.204Z,1.16
2018-07-02T11:48:46.190Z,1
2018-07-02T11:54:41.224Z,0.93
2018-07-02T12:00:36.282Z,0.88
2018-07-02T12:06:31.265Z,0.93
2018-07-02T12:12:26.264Z,1.04
2018-07-02T12:18:21.258Z,1.13
2018-07-02T12:24:16.328Z,1.1
2018-07-02T12:30:11.254Z,1.02
2018-07-02T12:36:06.262Z,0.97
2018-07-02T12:42:01.294Z,1.12
2018-07-02T12:47:56.308Z,0.94
2018-07-02T12:53:51.267Z,1.03
2018-07-02T12:59:46.285Z,0.88
2018-07-02T13:05:41.319Z,0.8
2018-07-02T13:11:36.340Z,1.09
2018-07-02T13:17:31.339Z,1.02
2018-07-02T13:23:26.290Z,0.83
2018-07-02T13:29:21.361Z,1.09
2018-07-02T13:35:16.300Z,0.83
2018-07-02T13:41:11.306Z,0.85
2018-07-02T13:47:06.391Z,1.11
2018-07-02T13:53:01.340Z,0.95
2018-07-02T13:58:56.364Z,0.96
2018-07-02T14:04:51.382Z,0.92
2018-07-02T14:10:46.350Z,0.96
2018-07-02T14:16:52.552Z,0.97
2018-07-02T14:22:36.394Z,1.19
2018-07-02T14:28:31.363Z,0.96
2018-07-02T14:34:30.667Z,0.77
2018-07-02T14:40:21.373Z,1.26
2018-07-02T14:46:16.476Z,1
2018-07-02T14:52:11.402Z,1.03
2018-07-02T14:58:06.444Z,1.22
2018-07-02T15:04:01.403Z,1.02
2018-07-02T15:09:56.398Z,0.91
2018-07-02T15:15:51.448Z,0.99
2018-07-02T15:21:48.089Z,1.06
2018-07-02T15:27:41.428Z,1.09
2018-07-02T15:33:36.560Z,1.04
2018-07-02T15:39:31.429Z,1.42
2018-07-02T15:45:27.123Z,1.26
2018-07-02T15:51:21.478Z,1.11
2018-07-02T15:57:16.470Z,1.15
2018-07-02T16:03:11.512Z,1.13
2018-07-02T16:09:06.474Z,1.27
2018-07-02T16:15:01.477Z,1.5
2018-07-02T16:20:56.569Z,1.86
2018-07-02T16:26:56.742Z,1.63
2018-07-02T16:32:46.506Z,1.39
2018-07-02T16:38:41.522Z,1.79
2018-07-02T16:44:36.587Z,1.83
2018-07-02T16:50:31.589Z,2.39
2018-07-02T16:56:26.481Z,1.93
2018-07-02T17:02:21.505Z,2.05
2018-07-02T17:08:16.533Z,1.95
2018-07-02T17:14:11.592Z,2.06
2018-07-02T17:20:06.650Z,2.12
2018-07-02T17:26:01.557Z,1.99
2018-07-02T17:31:56.539Z,2.43
2018-07-02T17:37:51.530Z,2.41
2018-07-02T17:43:46.524Z,2.24
2018-07-02T17:49:41.594Z,2.58
2018-07-02T17:55:36.569Z,2.44
2018-07-02T18:01:31.563Z,2.49
2018-07-02T18:07:26.630Z,2.39
2018-07-02T18:13:21.584Z,3.19
2018-07-02T18:19:16.612Z,2.45
2018-07-02T18:25:11.628Z,2.91
2018-07-02T18:31:06.590Z,2.43
2018-07-02T18:37:01.650Z,2.47
2018-07-02T18:42:56.676Z,3.01
2018-07-02T18:48:51.628Z,2.91
2018-07-02T18:54:46.644Z,2.67
2018-07-02T19:00:41.673Z,3.21
2018-07-02T19:06:36.593Z,2.99
2018-07-02T19:12:31.713Z,3.27
2018-07-02T19:18:26.643Z,3.68
2018-07-02T19:24:21.663Z,3.8
2018-07-02T19:30:16.646Z,3.33
2018-07-02T19:36:11.658Z,3.14
2018-07-02T19:42:06.652Z,3.48
2018-07-02T19:48:01.685Z,3.33
2018-07-02T19:53:56.732Z,3.35
2018-07-02T19:59:51.642Z,3.65
2018-07-02T20:05:46.704Z,3.36
2018-07-02T20:11:41.676Z,3.69
2018-07-02T20:17:36.713Z,3.24
2018-07-02T20:23:31.723Z,3.67
2018-07-02T20:29:33.360Z,3.22
2018-07-02T20:35:21.721Z,3.87
2018-07-02T20:41:16.702Z,3.55
2018-07-02T20:47:11.740Z,3.89
2018-07-02T20:53:06.726Z,3.46
2018-07-02T20:59:01.739Z,3.54
2018-07-02T21:04:56.760Z,3.8
2018-07-02T21:10:51.731Z,4.12
2018-07-02T21:16:46.777Z,3.93
2018-07-02T21:22:41.778Z,4.4
2018-07-02T21:28:36.742Z,3.74
2018-07-02T21:34:31.743Z,3.83
2018-07-02T21:40:26.779Z,3.75
2018-07-02T21:46:21.815Z,4.04
2018-07-02T21:52:16.780Z,3.84
2018-07-02T21:58:11.844Z,3.8
2018-07-02T22:04:06.780Z,3.81
2018-07-02T22:10:01.800Z,3.8
2018-07-02T22:15:56.761Z,3.77
2018-07-02T22:21:51.793Z,4.46
2018-07-02T22:27:46.818Z,3.92
2018-07-02T22:33:41.811Z,4.26
2018-07-02T22:39:36.789Z,4.54
2018-07-02T22:45:31.811Z,4.01
2018-07-02T22:51:26.829Z,4.04
2018-07-02T22:57:21.880Z,4.64
2018-07-02T23:03:16.793Z,4.74
2018-07-02T23:09:11.788Z,4.11
2018-07-02T23:15:06.823Z,3.91
2018-07-02T23:21:01.858Z,3.75
2018-07-02T23:26:56.805Z,4.01
2018-07-02T23:32:51.839Z,4.36
2018-07-02T23:38:46.851Z,4.88
2018-07-02T23:44:41.856Z,4.71
2018-07-02T23:50:36.905Z,4.27
2018-07-02T23:56:31.867Z,4.38
